createdAt,value
2017-10-26T00:00:44.793Z,12.58
2017-10-26T00:01:53.415Z,12.57
2017-10-26T00:03:02.048Z,12.61
2017-10-26T00:04:10.678Z,12.55
2017-10-26T00:05:19.302Z,12.55
2017-10-26T00:06:27.938Z,12.54
2017-10-26T00:07:36.567Z,12.58
2017-10-26T00:08:45.198Z,12.58
2017-10-26T00:09:53.830Z,12.57
2017-10-26T00:11:02.453Z,12.63
2017-10-26T00:12:11.086Z,12.61
2017-10-26T00:13:19.712Z,12.63
2017-10-26T00:14:28.349Z,12.63
2017-10-26T00:15:36.974Z,12.53
2017-10-26T00:16:45.600Z,12.54
2017-10-26T00:17:54.245Z,12.63
2017-10-26T00:19:02.862Z,12.58
2017-10-26T00:20:11.484Z,12.65
2017-10-26T00:21:20.115Z,12.54
2017-10-26T00:22:28.745Z,12.68
2017-10-26T00:23:37.696Z,12.55
2017-10-26T00:24:46.326Z,12.55
2017-10-26T00:25:54.958Z,12.54
2017-10-26T00:27:03.583Z,12.57
2017-10-26T00:28:12.225Z,12.55
2017-10-26T00:29:20.842Z,12.54
2017-10-26T00:30:29.474Z,12.57
2017-10-26T00:31:38.103Z,12.54
2017-10-26T00:32:46.725Z,12.45
2017-10-26T00:33:55.354Z,12.47
2017-10-26T00:35:04.321Z,12.51
2017-10-26T00:36:12.953Z,12.45
2017-10-26T00:37:21.583Z,12.4
2017-10-26T00:38:30.540Z,12.48
2017-10-26T00:39:39.169Z,12.45
2017-10-26T00:40:47.799Z,12.48
2017-10-26T00:41:56.422Z,12.58
2017-10-26T00:43:05.058Z,12.57
2017-10-26T00:44:13.696Z,12.61
2017-10-26T00:45:22.312Z,12.55
2017-10-26T00:46:30.942Z,12.55
2017-10-26T00:47:39.564Z,12.61
2017-10-26T00:48:48.197Z,12.62
2017-10-26T00:49:56.831Z,12.5
2017-10-26T00:51:05.451Z,12.58
2017-10-26T00:52:14.084Z,12.57
2017-10-26T00:53:22.712Z,12.57
2017-10-26T00:54:31.339Z,12.61
2017-10-26T00:55:39.961Z,12.68
2017-10-26T00:56:48.596Z,12.62
2017-10-26T00:57:57.225Z,12.61
2017-10-26T00:59:05.855Z,12.66
2017-10-26T01:00:14.475Z,12.69
2017-10-26T01:01:23.106Z,12.7
2017-10-26T01:02:31.742Z,12.73
2017-10-26T01:03:40.698Z,12.73
2017-10-26T01:04:49.333Z,12.75
2017-10-26T01:05:57.956Z,12.78
2017-10-26T01:07:06.581Z,12.75
2017-10-26T01:08:15.215Z,12.76
2017-10-26T01:09:23.836Z,12.81
2017-10-26T01:10:32.475Z,12.8
2017-10-26T01:11:41.097Z,12.72
2017-10-26T01:12:49.727Z,12.75
2017-10-26T01:13:58.357Z,12.66
2017-10-26T01:15:06.975Z,12.68
2017-10-26T01:16:15.603Z,12.65
2017-10-26T01:17:24.234Z,12.65
2017-10-26T01:18:32.855Z,12.68
2017-10-26T01:19:41.482Z,12.65
2017-10-26T01:20:50.114Z,12.66
2017-10-26T01:21:58.742Z,12.63
2017-10-26T01:23:07.364Z,12.63
2017-10-26T01:24:16.003Z,12.57
2017-10-26T01:25:24.621Z,12.61
2017-10-26T01:26:33.254Z,12.53
2017-10-26T01:27:41.874Z,12.63
2017-10-26T01:28:50.504Z,12.65
2017-10-26T01:29:59.135Z,12.57
2017-10-26T01:31:07.774Z,12.53
2017-10-26T01:32:16.745Z,12.47
2017-10-26T01:33:25.381Z,12.55
2017-10-26T01:34:34.012Z,12.51
2017-10-26T01:35:42.640Z,12.55
2017-10-26T01:36:51.275Z,12.47
2017-10-26T01:37:59.902Z,12.58
2017-10-26T01:39:08.528Z,12.53
2017-10-26T01:40:17.158Z,12.48
2017-10-26T01:41:25.784Z,12.47
2017-10-26T01:42:34.415Z,12.44
2017-10-26T01:43:43.040Z,12.36
2017-10-26T01:44:51.668Z,12.35
2017-10-26T01:46:00.304Z,12.37
2017-10-26T01:47:08.934Z,12.36
2017-10-26T01:48:17.888Z,12.39
2017-10-26T01:49:26.520Z,12.33
2017-10-26T01:50:35.148Z,12.37
2017-10-26T01:51:43.779Z,12.39
2017-10-26T01:52:52.408Z,12.4
2017-10-26T01:54:01.040Z,12.45
2017-10-26T01:55:09.659Z,12.51
2017-10-26T01:56:18.296Z,12.53
2017-10-26T01:57:26.917Z,12.55
2017-10-26T01:58:35.872Z,12.57
2017-10-26T01:59:44.504Z,12.57
2017-10-26T02:00:53.125Z,12.61
2017-10-26T02:02:01.759Z,12.7
2017-10-26T02:03:10.385Z,12.69
2017-10-26T02:04:19.019Z,12.78
2017-10-26T02:05:27.646Z,12.81
2017-10-26T02:06:36.270Z,12.78
2017-10-26T02:07:44.902Z,12.83
2017-10-26T02:08:53.533Z,12.8
2017-10-26T02:10:02.153Z,12.84
2017-10-26T02:11:10.782Z,12.88
2017-10-26T02:12:19.408Z,12.88
2017-10-26T02:13:28.047Z,12.81
2017-10-26T02:14:36.671Z,12.76
2017-10-26T02:15:45.296Z,12.78
2017-10-26T02:16:53.926Z,12.7
2017-10-26T02:18:02.561Z,12.66
2017-10-26T02:19:11.178Z,12.66
2017-10-26T02:20:19.804Z,12.63
2017-10-26T02:21:28.437Z,12.68
2017-10-26T02:22:37.073Z,12.62
2017-10-26T02:23:45.688Z,12.65
2017-10-26T02:24:54.317Z,12.68
2017-10-26T02:26:02.949Z,12.55
2017-10-26T02:27:11.578Z,12.62
2017-10-26T02:28:20.198Z,12.62
2017-10-26T02:29:28.832Z,12.57
2017-10-26T02:30:37.463Z,12.58
2017-10-26T02:31:46.081Z,12.54
2017-10-26T02:32:54.706Z,12.63
2017-10-26T02:34:03.341Z,12.5
2017-10-26T02:35:12.660Z,12.55
2017-10-26T02:36:21.286Z,12.58
2017-10-26T02:37:29.921Z,12.55
2017-10-26T02:38:38.549Z,12.55
2017-10-26T02:39:47.179Z,12.53
2017-10-26T02:40:55.812Z,12.61
2017-10-26T02:42:04.433Z,12.61
2017-10-26T02:43:13.066Z,12.62
2017-10-26T02:44:21.694Z,12.63
2017-10-26T02:45:30.323Z,12.63
2017-10-26T02:46:38.960Z,12.66
2017-10-26T02:47:47.580Z,12.7
2017-10-26T02:48:56.206Z,12.75
2017-10-26T02:50:04.836Z,12.8
2017-10-26T02:51:13.464Z,12.8
2017-10-26T02:52:22.431Z,12.83
2017-10-26T02:53:31.062Z,12.84
2017-10-26T02:54:39.683Z,12.84
2017-10-26T02:55:48.318Z,12.83
2017-10-26T02:56:56.950Z,12.94
2017-10-26T02:58:05.574Z,12.9
2017-10-26T02:59:14.208Z,12.88
2017-10-26T03:00:22.830Z,12.86
2017-10-26T03:01:31.461Z,12.87
2017-10-26T03:02:40.104Z,12.93
2017-10-26T03:03:48.714Z,12.95
2017-10-26T03:04:57.350Z,12.84
2017-10-26T03:06:05.971Z,12.93
2017-10-26T03:07:14.596Z,12.93
2017-10-26T03:08:23.231Z,13.02
2017-10-26T03:09:31.850Z,12.98
2017-10-26T03:10:40.480Z,12.95
2017-10-26T03:11:49.103Z,12.93
2017-10-26T03:12:57.731Z,13.01
2017-10-26T03:14:06.366Z,12.94
2017-10-26T03:15:14.996Z,12.81
2017-10-26T03:16:23.623Z,12.91
2017-10-26T03:17:32.258Z,12.87
2017-10-26T03:18:40.884Z,12.84
2017-10-26T03:19:49.514Z,12.83
2017-10-26T03:20:58.145Z,12.81
2017-10-26T03:22:06.777Z,12.78
2017-10-26T03:23:15.397Z,12.81
2017-10-26T03:24:24.028Z,12.8
2017-10-26T03:25:32.660Z,12.72
2017-10-26T03:26:41.621Z,12.7
2017-10-26T03:27:50.245Z,12.66
2017-10-26T03:28:59.208Z,12.75
2017-10-26T03:30:07.837Z,12.69
2017-10-26T03:31:16.474Z,12.63
2017-10-26T03:32:25.117Z,12.68
2017-10-26T03:33:33.723Z,12.69
2017-10-26T03:34:42.353Z,12.62
2017-10-26T03:35:50.972Z,12.55
2017-10-26T03:36:59.601Z,12.62
2017-10-26T03:38:08.231Z,12.65
2017-10-26T03:39:16.859Z,12.63
2017-10-26T03:40:25.493Z,12.58
2017-10-26T03:41:34.114Z,12.55
2017-10-26T03:42:42.745Z,12.61
2017-10-26T03:43:51.374Z,12.63
2017-10-26T03:44:59.995Z,12.63
2017-10-26T03:46:08.620Z,12.57
2017-10-26T03:47:17.250Z,12.57
2017-10-26T03:48:25.871Z,12.55
2017-10-26T03:49:34.499Z,12.51
2017-10-26T03:50:43.133Z,12.53
2017-10-26T03:51:51.760Z,12.51
2017-10-26T03:53:00.390Z,12.51
2017-10-26T03:54:09.015Z,12.48
2017-10-26T03:55:17.645Z,12.57
2017-10-26T03:56:26.276Z,12.54
2017-10-26T03:57:34.898Z,12.57
2017-10-26T03:58:43.523Z,12.55
2017-10-26T03:59:52.155Z,12.54
2017-10-26T04:01:00.782Z,12.44
2017-10-26T04:02:09.413Z,12.53
2017-10-26T04:03:18.036Z,12.43
2017-10-26T04:04:26.665Z,12.33
2017-10-26T04:05:35.293Z,12.29
2017-10-26T04:06:43.917Z,12.29
2017-10-26T04:07:52.559Z,12.3
2017-10-26T04:09:01.169Z,12.39
2017-10-26T04:10:09.803Z,12.39
2017-10-26T04:11:18.431Z,12.37
2017-10-26T04:12:27.055Z,12.4
2017-10-26T04:13:35.682Z,12.43
2017-10-26T04:14:44.310Z,12.39
2017-10-26T04:15:52.936Z,12.44
2017-10-26T04:17:01.563Z,12.62
2017-10-26T04:18:10.194Z,12.53
2017-10-26T04:19:18.820Z,12.57
2017-10-26T04:20:27.447Z,12.63
2017-10-26T04:21:36.080Z,12.62
2017-10-26T04:22:44.703Z,12.65
2017-10-26T04:23:53.331Z,12.76
2017-10-26T04:25:01.955Z,12.8
2017-10-26T04:26:10.582Z,12.78
2017-10-26T04:27:19.215Z,12.84
2017-10-26T04:28:27.842Z,12.83
2017-10-26T04:29:36.470Z,12.9
2017-10-26T04:30:45.090Z,12.88
2017-10-26T04:31:53.719Z,12.84
2017-10-26T04:33:02.348Z,12.98
2017-10-26T04:34:11.307Z,12.95
2017-10-26T04:35:20.264Z,13.03
2017-10-26T04:36:28.898Z,13.05
2017-10-26T04:37:37.857Z,12.98
2017-10-26T04:38:46.485Z,13.01
2017-10-26T04:39:55.106Z,13.03
2017-10-26T04:41:03.739Z,13.05
2017-10-26T04:42:12.368Z,13.02
2017-10-26T04:43:20.996Z,13.02
2017-10-26T04:44:29.622Z,13.06
2017-10-26T04:45:38.255Z,12.91
2017-10-26T04:46:46.882Z,13.01
2017-10-26T04:47:55.507Z,12.99
2017-10-26T04:49:04.145Z,12.95
2017-10-26T04:50:12.768Z,12.95
2017-10-26T04:51:21.394Z,12.98
2017-10-26T04:52:30.019Z,12.95
2017-10-26T04:53:38.649Z,12.94
2017-10-26T04:54:47.283Z,12.95
2017-10-26T04:55:55.910Z,13.01
2017-10-26T04:57:04.534Z,12.98
2017-10-26T04:58:13.167Z,12.99
2017-10-26T04:59:21.789Z,12.99
2017-10-26T05:00:30.419Z,13.02
2017-10-26T05:01:39.043Z,12.86
2017-10-26T05:02:47.668Z,12.87
2017-10-26T05:03:56.306Z,12.9
2017-10-26T05:05:04.933Z,12.88
2017-10-26T05:06:13.563Z,12.81
2017-10-26T05:07:22.185Z,12.91
2017-10-26T05:08:30.816Z,12.8
2017-10-26T05:09:39.783Z,12.83
2017-10-26T05:10:48.407Z,12.81
2017-10-26T05:11:57.036Z,12.81
2017-10-26T05:13:05.673Z,12.73
2017-10-26T05:14:14.298Z,12.73
2017-10-26T05:15:22.923Z,12.68
2017-10-26T05:16:31.557Z,12.66
2017-10-26T05:17:40.184Z,12.68
2017-10-26T05:18:48.809Z,12.62
2017-10-26T05:19:57.438Z,12.65
2017-10-26T05:21:06.059Z,12.65
2017-10-26T05:22:14.696Z,12.62
2017-10-26T05:23:23.322Z,12.61
2017-10-26T05:24:31.950Z,12.54
2017-10-26T05:25:40.582Z,12.63
2017-10-26T05:26:49.206Z,12.58
2017-10-26T05:27:57.832Z,12.5
2017-10-26T05:29:06.460Z,12.58
2017-10-26T05:30:15.091Z,12.58
2017-10-26T05:31:23.718Z,12.55
2017-10-26T05:32:32.342Z,12.5
2017-10-26T05:33:40.970Z,12.48
2017-10-26T05:34:49.593Z,12.58
2017-10-26T05:35:58.226Z,12.54
2017-10-26T05:37:06.851Z,12.58
2017-10-26T05:38:15.482Z,12.58
2017-10-26T05:39:24.113Z,12.57
2017-10-26T05:40:32.736Z,12.58
2017-10-26T05:41:41.363Z,12.61
2017-10-26T05:42:49.992Z,12.57
2017-10-26T05:43:58.615Z,12.57
2017-10-26T05:45:07.242Z,12.58
2017-10-26T05:46:15.871Z,12.62
2017-10-26T05:47:24.496Z,12.63
2017-10-26T05:48:33.123Z,12.62
2017-10-26T05:49:41.919Z,12.65
2017-10-26T05:50:50.874Z,12.65
2017-10-26T05:51:59.502Z,12.65
2017-10-26T05:53:08.122Z,12.62
2017-10-26T05:54:16.753Z,12.68
2017-10-26T05:55:25.384Z,12.65
2017-10-26T05:56:34.013Z,12.66
2017-10-26T05:57:42.645Z,12.65
2017-10-26T05:58:51.267Z,12.62
2017-10-26T05:59:59.900Z,12.63
2017-10-26T06:01:08.535Z,12.65
2017-10-26T06:02:17.153Z,12.68
2017-10-26T06:03:25.784Z,12.75
2017-10-26T06:04:34.750Z,12.72
2017-10-26T06:05:43.380Z,12.76
2017-10-26T06:06:52.013Z,12.84
2017-10-26T06:08:00.632Z,12.76
2017-10-26T06:09:09.267Z,12.83
2017-10-26T06:10:17.895Z,12.86
2017-10-26T06:11:26.518Z,12.81
2017-10-26T06:12:35.151Z,12.81
2017-10-26T06:13:43.780Z,12.83
2017-10-26T06:14:52.405Z,12.83
2017-10-26T06:16:01.030Z,12.84
2017-10-26T06:17:09.670Z,12.86
2017-10-26T06:18:18.289Z,12.87
2017-10-26T06:19:26.919Z,12.88
2017-10-26T06:20:35.546Z,12.91
2017-10-26T06:21:44.168Z,12.84
2017-10-26T06:22:52.800Z,12.84
2017-10-26T06:24:01.426Z,12.94
2017-10-26T06:25:10.056Z,12.95
2017-10-26T06:26:18.690Z,13.01
2017-10-26T06:27:27.318Z,12.95
2017-10-26T06:28:35.939Z,12.99
2017-10-26T06:29:44.574Z,12.99
2017-10-26T06:30:53.200Z,12.95
2017-10-26T06:32:01.829Z,12.98
2017-10-26T06:33:10.461Z,13.05
2017-10-26T06:34:19.081Z,13.09
2017-10-26T06:35:27.714Z,13.01
2017-10-26T06:36:36.340Z,13.01
2017-10-26T06:37:44.966Z,13.03
2017-10-26T06:38:53.601Z,13.02
2017-10-26T06:40:02.231Z,13.16
2017-10-26T06:41:10.858Z,13.11
2017-10-26T06:42:19.495Z,13.11
2017-10-26T06:43:28.121Z,13.12
2017-10-26T06:44:36.742Z,13.16
2017-10-26T06:45:45.373Z,13.19
2017-10-26T06:46:54.003Z,13.23
2017-10-26T06:48:02.622Z,13.13
2017-10-26T06:49:11.276Z,13.24
2017-10-26T06:50:19.886Z,13.33
2017-10-26T06:51:28.513Z,13.37
2017-10-26T06:52:37.144Z,13.36
2017-10-26T06:53:45.765Z,13.37
2017-10-26T06:54:54.392Z,13.4
2017-10-26T06:56:03.023Z,13.46
2017-10-26T06:57:11.658Z,13.42
2017-10-26T06:58:20.284Z,13.39
2017-10-26T06:59:29.252Z,13.39
2017-10-26T07:00:37.880Z,13.39
2017-10-26T07:01:46.514Z,13.52
2017-10-26T07:02:55.132Z,13.52
2017-10-26T07:04:03.769Z,13.49
2017-10-26T07:05:12.393Z,13.52
2017-10-26T07:06:21.028Z,13.54
2017-10-26T07:07:29.653Z,13.61
2017-10-26T07:08:38.280Z,13.61
2017-10-26T07:09:46.914Z,13.64
2017-10-26T07:10:55.545Z,13.62
2017-10-26T07:12:04.499Z,13.57
2017-10-26T07:13:13.134Z,13.7
2017-10-26T07:14:21.765Z,13.67
2017-10-26T07:15:30.384Z,13.6
2017-10-26T07:16:39.015Z,13.7
2017-10-26T07:17:47.652Z,13.73
2017-10-26T07:18:56.607Z,13.7
2017-10-26T07:20:05.240Z,13.71
2017-10-26T07:21:13.860Z,13.68
2017-10-26T07:22:22.494Z,13.61
2017-10-26T07:23:31.123Z,13.58
2017-10-26T07:24:39.743Z,13.58
2017-10-26T07:25:48.374Z,13.55
2017-10-26T07:26:57.006Z,13.62
2017-10-26T07:28:05.973Z,13.61
2017-10-26T07:29:14.599Z,13.61
2017-10-26T07:30:23.564Z,13.58
2017-10-26T07:31:32.188Z,13.64
2017-10-26T07:32:40.820Z,13.57
2017-10-26T07:33:49.440Z,13.58
2017-10-26T07:34:58.070Z,13.61
2017-10-26T07:36:06.701Z,13.64
2017-10-26T07:37:15.329Z,13.78
2017-10-26T07:38:23.957Z,13.68
2017-10-26T07:39:32.591Z,13.75
2017-10-26T07:40:41.218Z,13.7
2017-10-26T07:41:49.865Z,13.75
2017-10-26T07:42:58.498Z,13.68
2017-10-26T07:44:07.129Z,13.64
2017-10-26T07:45:15.908Z,13.68
2017-10-26T07:46:24.541Z,13.79
2017-10-26T07:47:33.160Z,13.82
2017-10-26T07:48:41.796Z,13.78
2017-10-26T07:49:50.419Z,13.83
2017-10-26T07:50:59.049Z,13.85
2017-10-26T07:52:07.685Z,13.93
2017-10-26T07:53:16.312Z,13.94
2017-10-26T07:54:25.262Z,13.89
2017-10-26T07:55:33.889Z,14.01
2017-10-26T07:56:42.518Z,13.95
2017-10-26T07:57:51.153Z,13.97
2017-10-26T07:58:59.782Z,14
2017-10-26T08:00:08.408Z,14.01
2017-10-26T08:01:17.048Z,14.15
2017-10-26T08:02:25.667Z,14.13
2017-10-26T08:03:34.303Z,14.13
2017-10-26T08:04:42.929Z,14.08
2017-10-26T08:05:51.555Z,14.07
2017-10-26T08:07:00.192Z,14.18
2017-10-26T08:08:08.819Z,14.16
2017-10-26T08:09:17.447Z,14.18
2017-10-26T08:10:26.082Z,14.22
2017-10-26T08:11:34.707Z,14.2
2017-10-26T08:12:43.333Z,14.2
2017-10-26T08:13:51.967Z,14.22
2017-10-26T08:15:00.599Z,14.36
2017-10-26T08:16:09.223Z,14.37
2017-10-26T08:17:17.857Z,14.33
2017-10-26T08:18:26.483Z,14.3
2017-10-26T08:19:35.120Z,14.38
2017-10-26T08:20:43.747Z,14.4
2017-10-26T08:21:52.373Z,14.4
2017-10-26T08:23:01.005Z,14.37
2017-10-26T08:24:09.960Z,14.45
2017-10-26T08:25:18.590Z,14.37
2017-10-26T08:26:27.217Z,14.45
2017-10-26T08:27:35.841Z,14.49
2017-10-26T08:28:44.478Z,14.55
2017-10-26T08:29:53.432Z,14.56
2017-10-26T08:31:02.063Z,14.59
2017-10-26T08:32:10.691Z,14.66
2017-10-26T08:33:19.320Z,14.7
2017-10-26T08:34:27.965Z,14.67
2017-10-26T08:35:36.593Z,14.68
2017-10-26T08:36:45.218Z,14.73
2017-10-26T08:37:53.854Z,14.73
2017-10-26T08:39:02.482Z,14.78
2017-10-26T08:40:11.111Z,14.7
2017-10-26T08:41:19.743Z,14.77
2017-10-26T08:42:28.369Z,14.74
2017-10-26T08:43:36.990Z,14.77
2017-10-26T08:44:45.621Z,14.77
2017-10-26T08:45:54.248Z,14.71
2017-10-26T08:47:02.897Z,14.77
2017-10-26T08:48:11.512Z,14.68
2017-10-26T08:49:20.144Z,14.81
2017-10-26T08:50:28.772Z,14.79
2017-10-26T08:51:37.404Z,14.74
2017-10-26T08:52:46.028Z,14.85
2017-10-26T08:53:54.655Z,14.92
2017-10-26T08:55:03.281Z,14.86
2017-10-26T08:56:11.917Z,14.92
2017-10-26T08:57:20.871Z,14.85
2017-10-26T08:58:29.501Z,14.9
2017-10-26T08:59:38.134Z,14.89
2017-10-26T09:00:47.088Z,14.85
2017-10-26T09:01:55.730Z,14.86
2017-10-26T09:03:04.356Z,14.92
2017-10-26T09:04:12.982Z,14.9
2017-10-26T09:05:21.620Z,14.89
2017-10-26T09:06:30.246Z,14.9
2017-10-26T09:07:38.884Z,14.93
2017-10-26T09:08:47.511Z,15
2017-10-26T09:09:56.142Z,14.93
2017-10-26T09:11:04.767Z,14.86
2017-10-26T09:12:13.400Z,14.93
2017-10-26T09:13:22.032Z,15
2017-10-26T09:14:30.653Z,15
2017-10-26T09:15:39.294Z,15.04
2017-10-26T09:16:47.920Z,15.07
2017-10-26T09:17:56.552Z,15.05
2017-10-26T09:19:05.183Z,14.97
2017-10-26T09:20:13.808Z,15
2017-10-26T09:21:22.442Z,15.02
2017-10-26T09:22:31.072Z,15.04
2017-10-26T09:23:39.701Z,15.12
2017-10-26T09:24:48.329Z,15
2017-10-26T09:25:56.964Z,15.14
2017-10-26T09:27:05.590Z,15.1
2017-10-26T09:28:14.222Z,15.19
2017-10-26T09:29:22.856Z,15.17
2017-10-26T09:30:31.485Z,15.18
2017-10-26T09:31:40.445Z,15.25
2017-10-26T09:32:49.064Z,15.29
2017-10-26T09:33:57.698Z,15.35
2017-10-26T09:35:06.332Z,15.26
2017-10-26T09:36:14.960Z,15.35
2017-10-26T09:37:23.586Z,15.36
2017-10-26T09:38:32.218Z,15.36
2017-10-26T09:39:40.848Z,15.44
2017-10-26T09:40:49.476Z,15.48
2017-10-26T09:41:58.113Z,15.5
2017-10-26T09:43:06.739Z,15.6
2017-10-26T09:44:15.366Z,15.5
2017-10-26T09:45:23.993Z,15.62
2017-10-26T09:46:32.621Z,15.62
2017-10-26T09:47:41.260Z,15.55
2017-10-26T09:48:49.892Z,15.47
2017-10-26T09:49:58.514Z,15.55
2017-10-26T09:51:07.151Z,15.6
2017-10-26T09:52:15.774Z,15.67
2017-10-26T09:53:24.407Z,15.63
2017-10-26T09:54:33.034Z,15.78
2017-10-26T09:55:41.661Z,15.76
2017-10-26T09:56:50.636Z,15.9
2017-10-26T09:57:59.265Z,15.94
2017-10-26T09:59:07.900Z,15.99
2017-10-26T10:00:16.527Z,16
2017-10-26T10:01:25.155Z,16
2017-10-26T10:02:33.789Z,16.03
2017-10-26T10:03:42.418Z,16.05
2017-10-26T10:04:51.052Z,16.08
2017-10-26T10:05:59.686Z,16.06
2017-10-26T10:07:08.315Z,15.96
2017-10-26T10:08:16.944Z,15.94
2017-10-26T10:09:25.590Z,15.96
2017-10-26T10:10:34.210Z,15.88
2017-10-26T10:11:43.165Z,15.92
2017-10-26T10:12:51.798Z,15.91
2017-10-26T10:14:00.423Z,15.94
2017-10-26T10:15:09.064Z,15.96
2017-10-26T10:16:17.693Z,16
2017-10-26T10:17:26.321Z,16.05
2017-10-26T10:18:34.958Z,16.06
2017-10-26T10:19:43.583Z,16.08
2017-10-26T10:20:52.214Z,16.26
2017-10-26T10:22:00.846Z,16.17
2017-10-26T10:23:09.482Z,16.22
2017-10-26T10:24:18.111Z,16.24
2017-10-26T10:25:26.747Z,16.32
2017-10-26T10:26:35.383Z,16.31
2017-10-26T10:27:44.003Z,16.32
2017-10-26T10:28:52.641Z,16.32
2017-10-26T10:30:01.276Z,16.31
2017-10-26T10:31:10.239Z,16.36
2017-10-26T10:32:18.872Z,16.46
2017-10-26T10:33:27.498Z,16.39
2017-10-26T10:34:36.132Z,16.44
2017-10-26T10:35:44.768Z,16.46
2017-10-26T10:36:53.398Z,16.58
2017-10-26T10:38:02.031Z,16.54
2017-10-26T10:39:10.666Z,16.59
2017-10-26T10:40:19.295Z,16.58
2017-10-26T10:41:27.927Z,16.62
2017-10-26T10:42:36.569Z,16.72
2017-10-26T10:43:45.193Z,16.58
2017-10-26T10:44:53.827Z,16.51
2017-10-26T10:46:02.451Z,16.57
2017-10-26T10:47:11.089Z,16.61
2017-10-26T10:48:19.723Z,16.65
2017-10-26T10:49:28.353Z,16.64
2017-10-26T10:50:36.995Z,16.72
2017-10-26T10:51:45.613Z,16.72
2017-10-26T10:52:54.252Z,16.91
2017-10-26T10:54:02.886Z,16.92
2017-10-26T10:55:11.514Z,17.01
2017-10-26T10:56:20.145Z,17.04
2017-10-26T10:57:28.780Z,17.16
2017-10-26T10:58:37.414Z,17.17
2017-10-26T10:59:46.048Z,17.19
2017-10-26T11:00:54.673Z,17.2
2017-10-26T11:02:03.305Z,17.19
2017-10-26T11:03:11.945Z,17.2
2017-10-26T11:04:20.568Z,17.16
2017-10-26T11:05:29.204Z,17.17
2017-10-26T11:06:37.837Z,17.1
2017-10-26T11:07:46.471Z,16.99
2017-10-26T11:08:55.103Z,16.98
2017-10-26T11:10:03.743Z,16.99
2017-10-26T11:11:12.385Z,16.98
2017-10-26T11:12:21.018Z,16.92
2017-10-26T11:13:29.658Z,16.89
2017-10-26T11:14:38.281Z,16.89
2017-10-26T11:15:46.919Z,16.99
2017-10-26T11:16:55.549Z,16.95
2017-10-26T11:18:04.238Z,16.99
2017-10-26T11:19:13.026Z,16.95
2017-10-26T11:20:21.680Z,16.86
2017-10-26T11:21:30.310Z,16.99
2017-10-26T11:22:38.966Z,16.84
2017-10-26T11:23:47.597Z,16.99
2017-10-26T11:24:56.246Z,16.86
2017-10-26T11:26:04.867Z,16.89
2017-10-26T11:27:13.487Z,16.87
2017-10-26T11:28:22.121Z,16.84
2017-10-26T11:29:31.355Z,16.91
2017-10-26T11:30:40.006Z,16.87
2017-10-26T11:31:48.653Z,16.89
2017-10-26T11:32:57.284Z,16.86
2017-10-26T11:34:06.246Z,16.8
2017-10-26T11:35:14.881Z,16.87
2017-10-26T11:36:23.524Z,16.86
2017-10-26T11:37:32.155Z,16.91
2017-10-26T11:38:40.790Z,16.79
2017-10-26T11:39:49.493Z,16.77
2017-10-26T11:40:58.166Z,16.77
2017-10-26T11:42:07.471Z,16.76
2017-10-26T11:43:16.101Z,16.86
2017-10-26T11:44:24.736Z,16.87
2017-10-26T11:45:33.372Z,16.77
2017-10-26T11:46:41.997Z,16.77
2017-10-26T11:47:52.913Z,16.69
2017-10-26T11:49:02.299Z,16.69
2017-10-26T11:50:10.933Z,16.79
2017-10-26T11:51:19.559Z,16.72
2017-10-26T11:52:28.193Z,16.77
2017-10-26T11:53:36.829Z,16.83
2017-10-26T11:54:45.464Z,16.84
2017-10-26T11:55:54.089Z,16.86
2017-10-26T11:57:02.724Z,17.05
2017-10-26T11:58:11.351Z,16.97
2017-10-26T11:59:19.992Z,17.12
2017-10-26T12:00:28.624Z,17.07
2017-10-26T12:01:37.254Z,17.17
2017-10-26T12:02:45.890Z,17.22
2017-10-26T12:03:54.523Z,17.32
2017-10-26T12:05:03.150Z,17.34
2017-10-26T12:06:11.797Z,17.34
2017-10-26T12:07:20.420Z,17.35
2017-10-26T12:08:29.045Z,17.38
2017-10-26T12:09:37.676Z,17.39
2017-10-26T12:10:46.312Z,17.32
2017-10-26T12:11:54.946Z,17.39
2017-10-26T12:13:03.579Z,17.37
2017-10-26T12:14:12.208Z,17.41
2017-10-26T12:15:20.842Z,17.35
2017-10-26T12:16:29.476Z,17.38
2017-10-26T12:17:38.104Z,17.39
2017-10-26T12:18:46.745Z,17.39
2017-10-26T12:19:55.375Z,17.38
2017-10-26T12:21:04.011Z,17.32
2017-10-26T12:22:12.647Z,17.41
2017-10-26T12:23:21.274Z,17.41
2017-10-26T12:24:30.247Z,17.38
2017-10-26T12:25:38.878Z,17.37
2017-10-26T12:26:47.518Z,17.37
2017-10-26T12:27:56.147Z,17.37
2017-10-26T12:29:04.780Z,17.38
2017-10-26T12:30:13.414Z,17.35
2017-10-26T12:31:22.052Z,17.17
2017-10-26T12:32:30.677Z,17.27
2017-10-26T12:33:39.308Z,17.19
2017-10-26T12:34:47.942Z,17.12
2017-10-26T12:35:56.569Z,16.99
2017-10-26T12:37:05.204Z,17.01
2017-10-26T12:38:13.843Z,16.97
2017-10-26T12:39:22.473Z,16.86
2017-10-26T12:40:31.114Z,16.83
2017-10-26T12:41:39.739Z,16.94
2017-10-26T12:42:48.374Z,16.87
2017-10-26T12:43:57.006Z,16.77
2017-10-26T12:45:05.634Z,16.76
2017-10-26T12:46:14.264Z,16.69
2017-10-26T12:47:22.902Z,16.8
2017-10-26T12:48:31.538Z,16.69
2017-10-26T12:49:40.173Z,16.8
2017-10-26T12:50:48.797Z,16.77
2017-10-26T12:51:57.434Z,16.76
2017-10-26T12:53:06.071Z,16.87
2017-10-26T12:54:14.696Z,16.84
2017-10-26T12:55:23.335Z,16.89
2017-10-26T12:56:31.964Z,16.89
2017-10-26T12:57:40.597Z,16.98
2017-10-26T12:58:49.234Z,16.95
2017-10-26T12:59:57.860Z,17.01
2017-10-26T13:01:06.496Z,16.95
2017-10-26T13:02:15.131Z,16.99
2017-10-26T13:03:23.755Z,17.01
2017-10-26T13:04:32.388Z,16.86
2017-10-26T13:05:41.028Z,16.89
2017-10-26T13:06:49.658Z,16.87
2017-10-26T13:07:58.617Z,16.89
2017-10-26T13:09:07.257Z,16.87
2017-10-26T13:10:15.885Z,16.74
2017-10-26T13:11:24.522Z,16.79
2017-10-26T13:12:33.147Z,16.77
2017-10-26T13:13:41.781Z,16.79
2017-10-26T13:14:50.412Z,16.77
2017-10-26T13:15:59.040Z,16.66
2017-10-26T13:17:07.674Z,16.68
2017-10-26T13:18:16.311Z,16.68
2017-10-26T13:19:24.938Z,16.76
2017-10-26T13:20:33.568Z,16.68
2017-10-26T13:21:42.205Z,16.74
2017-10-26T13:22:50.830Z,16.73
2017-10-26T13:23:59.463Z,16.61
2017-10-26T13:25:08.091Z,16.74
2017-10-26T13:26:16.723Z,16.73
2017-10-26T13:27:25.360Z,16.65
2017-10-26T13:28:33.988Z,16.68
2017-10-26T13:29:42.616Z,16.62
2017-10-26T13:30:51.254Z,16.76
2017-10-26T13:31:59.883Z,16.62
2017-10-26T13:33:08.510Z,16.8
2017-10-26T13:34:17.145Z,16.72
2017-10-26T13:35:25.779Z,16.79
2017-10-26T13:36:34.418Z,16.74
2017-10-26T13:37:43.041Z,16.69
2017-10-26T13:38:51.999Z,16.76
2017-10-26T13:40:00.638Z,16.77
2017-10-26T13:41:09.265Z,16.74
2017-10-26T13:42:17.899Z,16.74
2017-10-26T13:43:26.533Z,16.77
2017-10-26T13:44:35.170Z,16.79
2017-10-26T13:45:43.793Z,16.76
2017-10-26T13:46:52.426Z,16.77
2017-10-26T13:48:01.056Z,16.76
2017-10-26T13:49:09.695Z,16.62
2017-10-26T13:50:18.326Z,16.8
2017-10-26T13:51:26.955Z,16.8
2017-10-26T13:52:35.587Z,16.72
2017-10-26T13:53:44.215Z,16.72
2017-10-26T13:54:52.851Z,16.65
2017-10-26T13:56:01.485Z,16.69
2017-10-26T13:57:10.113Z,16.64
2017-10-26T13:58:18.754Z,16.68
2017-10-26T13:59:27.382Z,16.68
2017-10-26T14:00:36.013Z,16.62
2017-10-26T14:01:44.651Z,16.68
2017-10-26T14:02:53.284Z,16.66
2017-10-26T14:04:01.910Z,16.68
2017-10-26T14:05:10.545Z,16.66
2017-10-26T14:06:19.183Z,16.69
2017-10-26T14:07:27.808Z,16.65
2017-10-26T14:08:36.448Z,16.65
2017-10-26T14:09:45.080Z,16.76
2017-10-26T14:10:53.713Z,16.72
2017-10-26T14:12:02.350Z,16.76
2017-10-26T14:13:10.975Z,16.79
2017-10-26T14:14:19.611Z,16.65
2017-10-26T14:15:28.244Z,16.69
2017-10-26T14:16:36.869Z,16.66
2017-10-26T14:17:45.504Z,16.65
2017-10-26T14:18:54.150Z,16.69
2017-10-26T14:20:02.773Z,16.66
2017-10-26T14:21:11.397Z,16.74
2017-10-26T14:22:20.036Z,16.61
2017-10-26T14:23:28.666Z,16.61
2017-10-26T14:24:37.304Z,16.57
2017-10-26T14:25:45.927Z,16.62
2017-10-26T14:26:54.913Z,16.5
2017-10-26T14:28:03.546Z,16.58
2017-10-26T14:29:12.177Z,16.57
2017-10-26T14:30:20.808Z,16.44
2017-10-26T14:31:29.453Z,16.44
2017-10-26T14:32:38.080Z,16.43
2017-10-26T14:33:46.708Z,16.4
2017-10-26T14:34:55.347Z,16.32
2017-10-26T14:36:03.976Z,16.4
2017-10-26T14:37:12.606Z,16.36
2017-10-26T14:38:21.570Z,16.28
2017-10-26T14:39:30.202Z,16.22
2017-10-26T14:40:38.840Z,16.29
2017-10-26T14:41:47.471Z,16.26
2017-10-26T14:42:56.098Z,16.18
2017-10-26T14:44:04.738Z,16.12
2017-10-26T14:45:13.365Z,16.17
2017-10-26T14:46:22.328Z,16.16
2017-10-26T14:47:30.956Z,16.16